sensor_id;sensor_type;location;lat;lon;timestamp;temperature;humidity
20200;DHT22;36284;37.236;-121.934;2023-08-24T00:01:57;35.70;95.20
20200;DHT22;36284;37.236;-121.934;2023-08-24T00:04:24;35.40;95.50
20200;DHT22;36284;37.236;-121.934;2023-08-24T00:06:51;35.50;95.60
20200;DHT22;36284;37.236;-121.934;2023-08-24T00:09:18;35.20;96.00
20200;DHT22;36284;37.236;-121.934;2023-08-24T00:11:45;35.00;95.70
20200;DHT22;36284;37.236;-121.934;2023-08-24T00:14:12;34.80;96.20
20200;DHT22;36284;37.236;-121.934;2023-08-24T00:16:39;34.40;96.80
20200;DHT22;36284;37.236;-121.934;2023-08-24T00:19:07;34.80;96.50
20200;DHT22;36284;37.236;-121.934;2023-08-24T00:21:34;34.40;97.20
20200;DHT22;36284;37.236;-121.934;2023-08-24T00:24:01;34.50;97.20
20200;DHT22;36284;37.236;-121.934;2023-08-24T00:26:28;34.20;97.50
20200;DHT22;36284;37.236;-121.934;2023-08-24T00:28:54;34.20;97.30
20200;DHT22;36284;37.236;-121.934;2023-08-24T00:31:21;33.80;96.60
20200;DHT22;36284;37.236;-121.934;2023-08-24T00:33:48;33.90;96.70
20200;DHT22;36284;37.236;-121.934;2023-08-24T00:36:17;33.90;96.50
20200;DHT22;36284;37.236;-121.934;2023-08-24T00:38:48;33.80;97.10
20200;DHT22;36284;37.236;-121.934;2023-08-24T00:41:17;33.70;96.90
20200;DHT22;36284;37.236;-121.934;2023-08-24T00:43:44;33.60;97.30
20200;DHT22;36284;37.236;-121.934;2023-08-24T00:46:12;33.50;97.40
20200;DHT22;36284;37.236;-121.934;2023-08-24T00:48:39;33.30;97.70
20200;DHT22;36284;37.236;-121.934;2023-08-24T00:51:06;33.10;98.20
20200;DHT22;36284;37.236;-121.934;2023-08-24T00:53:34;33.30;98.00
20200;DHT22;36284;37.236;-121.934;2023-08-24T00:56:01;32.90;98.40
20200;DHT22;36284;37.236;-121.934;2023-08-24T00:58:29;32.90;98.50
20200;DHT22;36284;37.236;-121.934;2023-08-24T01:00:57;33.00;98.70
20200;DHT22;36284;37.236;-121.934;2023-08-24T01:03:24;32.90;98.70
20200;DHT22;36284;37.236;-121.934;2023-08-24T01:05:52;32.90;98.60
20200;DHT22;36284;37.236;-121.934;2023-08-24T01:08:22;32.90;98.70
20200;DHT22;36284;37.236;-121.934;2023-08-24T01:11:10;32.70;99.00
20200;DHT22;36284;37.236;-121.934;2023-08-24T01:14:04;32.40;98.70
20200;DHT22;36284;37.236;-121.934;2023-08-24T01:16:36;32.30;98.80
20200;DHT22;36284;37.236;-121.934;2023-08-24T01:19:09;32.50;98.90
20200;DHT22;36284;37.236;-121.934;2023-08-24T01:21:38;32.50;98.90
20200;DHT22;36284;37.236;-121.934;2023-08-24T01:26:36;32.10;99.50
20200;DHT22;36284;37.236;-121.934;2023-08-24T01:29:05;31.90;99.80
20200;DHT22;36284;37.236;-121.934;2023-08-24T01:31:32;31.90;99.90
20200;DHT22;36284;37.236;-121.934;2023-08-24T01:33:59;31.80;99.90
20200;DHT22;36284;37.236;-121.934;2023-08-24T01:36:28;31.80;99.90
20200;DHT22;36284;37.236;-121.934;2023-08-24T01:39:07;31.60;99.90
20200;DHT22;36284;37.236;-121.934;2023-08-24T01:41:37;31.40;99.90
20200;DHT22;36284;37.236;-121.934;2023-08-24T01:44:12;31.40;99.90
20200;DHT22;36284;37.236;-121.934;2023-08-24T01:46:42;31.40;99.90
20200;DHT22;36284;37.236;-121.934;2023-08-24T01:49:11;31.10;99.90
20200;DHT22;36284;37.236;-121.934;2023-08-24T01:51:39;31.20;99.90
20200;DHT22;36284;37.236;-121.934;2023-08-24T01:54:15;31.20;99.90
20200;DHT22;36284;37.236;-121.934;2023-08-24T01:56:42;31.00;99.90
20200;DHT22;36284;37.236;-121.934;2023-08-24T01:59:10;30.90;99.90
20200;DHT22;36284;37.236;-121.934;2023-08-24T02:01:37;30.80;99.90
20200;DHT22;36284;37.236;-121.934;2023-08-24T02:04:04;30.70;99.90
20200;DHT22;36284;37.236;-121.934;2023-08-24T02:06:31;30.60;99.90
20200;DHT22;36284;37.236;-121.934;2023-08-24T02:08:58;30.50;99.90
20200;DHT22;36284;37.236;-121.934;2023-08-24T02:11:26;30.40;99.90
20200;DHT22;36284;37.236;-121.934;2023-08-24T02:13:53;30.20;99.90
20200;DHT22;36284;37.236;-121.934;2023-08-24T02:16:20;30.10;99.90
20200;DHT22;36284;37.236;-121.934;2023-08-24T02:18:47;30.00;99.90
20200;DHT22;36284;37.236;-121.934;2023-08-24T02:21:14;29.90;99.90
20200;DHT22;36284;37.236;-121.934;2023-08-24T02:23:42;29.70;99.90
20200;DHT22;36284;37.236;-121.934;2023-08-24T02:26:09;29.60;99.90
20200;DHT22;36284;37.236;-121.934;2023-08-24T02:28:37;29.50;99.90
20200;DHT22;36284;37.236;-121.934;2023-08-24T02:31:04;29.30;99.90
20200;DHT22;36284;37.236;-121.934;2023-08-24T02:33:32;29.10;99.90
20200;DHT22;36284;37.236;-121.934;2023-08-24T02:35:59;29.10;99.90
20200;DHT22;36284;37.236;-121.934;2023-08-24T02:38:26;28.90;99.90
20200;DHT22;36284;37.236;-121.934;2023-08-24T02:41:07;28.90;99.90
20200;DHT22;36284;37.236;-121.934;2023-08-24T02:43:35;28.80;99.90
20200;DHT22;36284;37.236;-121.934;2023-08-24T02:46:07;28.60;99.90
20200;DHT22;36284;37.236;-121.934;2023-08-24T02:48:35;28.50;99.90
20200;DHT22;36284;37.236;-121.934;2023-08-24T02:51:04;28.40;99.90
20200;DHT22;36284;37.236;-121.934;2023-08-24T02:53:31;28.40;99.90
20200;DHT22;36284;37.236;-121.934;2023-08-24T02:55:58;28.20;99.90
20200;DHT22;36284;37.236;-121.934;2023-08-24T02:58:25;28.20;99.90
20200;DHT22;36284;37.236;-121.934;2023-08-24T03:00:53;28.10;99.90
20200;DHT22;36284;37.236;-121.934;2023-08-24T03:03:20;27.90;99.90
20200;DHT22;36284;37.236;-121.934;2023-08-24T03:05:58;27.80;99.90
20200;DHT22;36284;37.236;-121.934;2023-08-24T03:08:25;27.60;99.90
20200;DHT22;36284;37.236;-121.934;2023-08-24T03:10:52;27.50;99.90
20200;DHT22;36284;37.236;-121.934;2023-08-24T03:13:19;27.40;99.90
20200;DHT22;36284;37.236;-121.934;2023-08-24T03:15:46;27.30;99.90
20200;DHT22;36284;37.236;-121.934;2023-08-24T03:18:16;27.10;99.90
20200;DHT22;36284;37.236;-121.934;2023-08-24T03:20:44;27.00;99.90
20200;DHT22;36284;37.236;-121.934;2023-08-24T03:23:12;27.00;99.90
20200;DHT22;36284;37.236;-121.934;2023-08-24T03:25:40;26.90;99.90
20200;DHT22;36284;37.236;-121.934;2023-08-24T03:28:09;26.90;99.90
20200;DHT22;36284;37.236;-121.934;2023-08-24T03:30:37;26.70;99.90
20200;DHT22;36284;37.236;-121.934;2023-08-24T03:33:05;26.60;99.90
20200;DHT22;36284;37.236;-121.934;2023-08-24T03:35:33;26.50;99.90
20200;DHT22;36284;37.236;-121.934;2023-08-24T03:38:00;26.20;99.90
20200;DHT22;36284;37.236;-121.934;2023-08-24T03:40:27;26.10;99.90
20200;DHT22;36284;37.236;-121.934;2023-08-24T03:42:54;26.00;99.90
20200;DHT22;36284;37.236;-121.934;2023-08-24T03:45:21;25.90;99.90
20200;DHT22;36284;37.236;-121.934;2023-08-24T03:47:49;25.70;99.90
20200;DHT22;36284;37.236;-121.934;2023-08-24T03:50:16;25.60;99.90
20200;DHT22;36284;37.236;-121.934;2023-08-24T03:52:43;25.50;99.90
20200;DHT22;36284;37.236;-121.934;2023-08-24T03:55:11;25.40;99.90
20200;DHT22;36284;37.236;-121.934;2023-08-24T03:57:38;25.30;99.90
20200;DHT22;36284;37.236;-121.934;2023-08-24T04:00:07;25.30;99.90
20200;DHT22;36284;37.236;-121.934;2023-08-24T04:02:38;25.10;99.90
20200;DHT22;36284;37.236;-121.934;2023-08-24T04:05:05;25.10;99.90
20200;DHT22;36284;37.236;-121.934;2023-08-24T04:07:32;25.00;99.90
20200;DHT22;36284;37.236;-121.934;2023-08-24T04:10:03;24.90;99.90
20200;DHT22;36284;37.236;-121.934;2023-08-24T04:12:33;24.80;99.90
20200;DHT22;36284;37.236;-121.934;2023-08-24T04:15:00;24.80;99.90
20200;DHT22;36284;37.236;-121.934;2023-08-24T04:17:29;24.80;99.90
20200;DHT22;36284;37.236;-121.934;2023-08-24T04:19:56;24.60;99.90
20200;DHT22;36284;37.236;-121.934;2023-08-24T04:22:23;24.60;99.90
20200;DHT22;36284;37.236;-121.934;2023-08-24T04:24:50;24.50;99.90
20200;DHT22;36284;37.236;-121.934;2023-08-24T04:27:17;24.50;99.90
20200;DHT22;36284;37.236;-121.934;2023-08-24T04:29:44;24.40;99.90
20200;DHT22;36284;37.236;-121.934;2023-08-24T04:32:11;24.40;99.90
20200;DHT22;36284;37.236;-121.934;2023-08-24T04:34:38;24.40;99.90
20200;DHT22;36284;37.236;-121.934;2023-08-24T04:37:06;24.30;99.90
20200;DHT22;36284;37.236;-121.934;2023-08-24T04:39:33;24.20;99.90
20200;DHT22;36284;37.236;-121.934;2023-08-24T04:42:00;24.20;99.90
20200;DHT22;36284;37.236;-121.934;2023-08-24T04:44:29;24.10;99.90
20200;DHT22;36284;37.236;-121.934;2023-08-24T04:46:56;24.00;99.90
20200;DHT22;36284;37.236;-121.934;2023-08-24T04:49:22;23.90;99.90
20200;DHT22;36284;37.236;-121.934;2023-08-24T04:51:49;23.90;99.90
20200;DHT22;36284;37.236;-121.934;2023-08-24T04:54:17;23.80;99.90
20200;DHT22;36284;37.236;-121.934;2023-08-24T04:56:44;23.80;99.90
20200;DHT22;36284;37.236;-121.934;2023-08-24T04:59:11;23.80;99.90
20200;DHT22;36284;37.236;-121.934;2023-08-24T05:01:38;23.70;99.90
20200;DHT22;36284;37.236;-121.934;2023-08-24T05:04:04;23.60;99.90
20200;DHT22;36284;37.236;-121.934;2023-08-24T05:06:31;23.50;99.90
20200;DHT22;36284;37.236;-121.934;2023-08-24T05:08:58;23.40;99.90
20200;DHT22;36284;37.236;-121.934;2023-08-24T05:11:27;23.40;99.90
20200;DHT22;36284;37.236;-121.934;2023-08-24T05:13:57;23.40;99.90
20200;DHT22;36284;37.236;-121.934;2023-08-24T05:16:24;23.40;99.90
20200;DHT22;36284;37.236;-121.934;2023-08-24T05:18:51;23.30;99.90
20200;DHT22;36284;37.236;-121.934;2023-08-24T05:21:18;23.20;99.90
20200;DHT22;36284;37.236;-121.934;2023-08-24T05:23:45;23.20;99.90
20200;DHT22;36284;37.236;-121.934;2023-08-24T05:26:12;23.20;99.90
20200;DHT22;36284;37.236;-121.934;2023-08-24T05:28:39;23.20;99.90
20200;DHT22;36284;37.236;-121.934;2023-08-24T05:31:06;23.20;99.90
20200;DHT22;36284;37.236;-121.934;2023-08-24T05:33:33;23.10;99.90
20200;DHT22;36284;37.236;-121.934;2023-08-24T05:36:00;23.00;99.90
20200;DHT22;36284;37.236;-121.934;2023-08-24T05:38:27;23.10;99.90
20200;DHT22;36284;37.236;-121.934;2023-08-24T05:40:54;23.10;99.90
20200;DHT22;36284;37.236;-121.934;2023-08-24T05:43:21;23.10;99.90
20200;DHT22;36284;37.236;-121.934;2023-08-24T05:45:48;23.00;99.90
20200;DHT22;36284;37.236;-121.934;2023-08-24T05:48:15;23.00;99.90
20200;DHT22;36284;37.236;-121.934;2023-08-24T05:50:44;22.90;99.90
20200;DHT22;36284;37.236;-121.934;2023-08-24T05:53:11;22.90;99.90
20200;DHT22;36284;37.236;-121.934;2023-08-24T05:55:38;22.80;99.90
20200;DHT22;36284;37.236;-121.934;2023-08-24T05:58:05;22.70;99.90
20200;DHT22;36284;37.236;-121.934;2023-08-24T06:00:32;22.60;99.90
20200;DHT22;36284;37.236;-121.934;2023-08-24T06:02:59;22.60;99.90
20200;DHT22;36284;37.236;-121.934;2023-08-24T06:05:26;22.60;99.90
20200;DHT22;36284;37.236;-121.934;2023-08-24T06:07:53;22.50;99.90
20200;DHT22;36284;37.236;-121.934;2023-08-24T06:10:21;22.40;99.90
20200;DHT22;36284;37.236;-121.934;2023-08-24T06:12:48;22.40;99.90
20200;DHT22;36284;37.236;-121.934;2023-08-24T06:15:15;22.40;99.90
20200;DHT22;36284;37.236;-121.934;2023-08-24T06:17:42;22.50;99.90
20200;DHT22;36284;37.236;-121.934;2023-08-24T06:20:09;22.60;99.90
20200;DHT22;36284;37.236;-121.934;2023-08-24T06:22:36;22.60;99.90
20200;DHT22;36284;37.236;-121.934;2023-08-24T06:25:04;22.40;99.90
20200;DHT22;36284;37.236;-121.934;2023-08-24T06:27:31;22.30;99.90
20200;DHT22;36284;37.236;-121.934;2023-08-24T06:29:58;22.40;99.90
20200;DHT22;36284;37.236;-121.934;2023-08-24T06:32:25;22.50;99.90
20200;DHT22;36284;37.236;-121.934;2023-08-24T06:34:52;22.40;99.90
20200;DHT22;36284;37.236;-121.934;2023-08-24T06:37:20;22.20;99.90
20200;DHT22;36284;37.236;-121.934;2023-08-24T06:39:47;22.20;99.90
20200;DHT22;36284;37.236;-121.934;2023-08-24T06:42:14;22.20;99.90
20200;DHT22;36284;37.236;-121.934;2023-08-24T06:44:41;22.00;99.90
20200;DHT22;36284;37.236;-121.934;2023-08-24T06:47:08;22.00;99.90
20200;DHT22;36284;37.236;-121.934;2023-08-24T06:49:35;22.00;99.90
20200;DHT22;36284;37.236;-121.934;2023-08-24T06:52:02;22.00;99.90
20200;DHT22;36284;37.236;-121.934;2023-08-24T06:54:29;21.90;99.90
20200;DHT22;36284;37.236;-121.934;2023-08-24T06:56:56;21.80;99.90
20200;DHT22;36284;37.236;-121.934;2023-08-24T06:59:23;21.80;99.90
20200;DHT22;36284;37.236;-121.934;2023-08-24T07:01:53;21.80;99.90
20200;DHT22;36284;37.236;-121.934;2023-08-24T07:04:20;21.70;99.90
20200;DHT22;36284;37.236;-121.934;2023-08-24T07:06:47;21.60;99.90
20200;DHT22;36284;37.236;-121.934;2023-08-24T07:09:15;21.60;99.90
20200;DHT22;36284;37.236;-121.934;2023-08-24T07:11:42;21.60;99.90
20200;DHT22;36284;37.236;-121.934;2023-08-24T07:14:09;21.50;99.90
20200;DHT22;36284;37.236;-121.934;2023-08-24T07:16:36;21.50;99.90
20200;DHT22;36284;37.236;-121.934;2023-08-24T07:19:03;21.50;99.90
20200;DHT22;36284;37.236;-121.934;2023-08-24T07:21:31;21.40;99.90
20200;DHT22;36284;37.236;-121.934;2023-08-24T07:23:58;21.30;99.90
20200;DHT22;36284;37.236;-121.934;2023-08-24T07:26:25;21.30;99.90
20200;DHT22;36284;37.236;-121.934;2023-08-24T07:28:52;21.20;99.90
20200;DHT22;36284;37.236;-121.934;2023-08-24T07:31:19;21.20;99.90
20200;DHT22;36284;37.236;-121.934;2023-08-24T07:33:46;21.20;99.90
20200;DHT22;36284;37.236;-121.934;2023-08-24T07:36:13;21.30;99.90
20200;DHT22;36284;37.236;-121.934;2023-08-24T07:38:40;21.20;99.90
20200;DHT22;36284;37.236;-121.934;2023-08-24T07:41:07;21.20;99.90
20200;DHT22;36284;37.236;-121.934;2023-08-24T07:43:35;21.30;99.90
20200;DHT22;36284;37.236;-121.934;2023-08-24T07:46:02;21.20;99.90
20200;DHT22;36284;37.236;-121.934;2023-08-24T07:48:30;21.10;99.90
20200;DHT22;36284;37.236;-121.934;2023-08-24T07:50:57;21.20;99.90
20200;DHT22;36284;37.236;-121.934;2023-08-24T07:53:23;21.20;99.90
20200;DHT22;36284;37.236;-121.934;2023-08-24T07:55:53;21.20;99.90
20200;DHT22;36284;37.236;-121.934;2023-08-24T07:58:24;21.20;99.90
20200;DHT22;36284;37.236;-121.934;2023-08-24T08:00:51;21.20;99.90
20200;DHT22;36284;37.236;-121.934;2023-08-24T08:03:19;21.10;99.90
20200;DHT22;36284;37.236;-121.934;2023-08-24T08:05:47;21.10;99.90
20200;DHT22;36284;37.236;-121.934;2023-08-24T08:08:14;21.00;99.90
20200;DHT22;36284;37.236;-121.934;2023-08-24T08:10:42;21.20;99.90
20200;DHT22;36284;37.236;-121.934;2023-08-24T08:13:09;21.20;99.90
20200;DHT22;36284;37.236;-121.934;2023-08-24T08:15:39;21.00;99.90
20200;DHT22;36284;37.236;-121.934;2023-08-24T08:18:06;21.10;99.90
20200;DHT22;36284;37.236;-121.934;2023-08-24T08:20:33;21.00;99.90
20200;DHT22;36284;37.236;-121.934;2023-08-24T08:23:00;21.00;99.90
20200;DHT22;36284;37.236;-121.934;2023-08-24T08:25:27;21.00;99.90
20200;DHT22;36284;37.236;-121.934;2023-08-24T08:27:54;21.00;99.90
20200;DHT22;36284;37.236;-121.934;2023-08-24T08:30:21;20.90;99.90
20200;DHT22;36284;37.236;-121.934;2023-08-24T08:32:48;20.90;99.90
20200;DHT22;36284;37.236;-121.934;2023-08-24T08:35:18;20.70;99.90
20200;DHT22;36284;37.236;-121.934;2023-08-24T08:37:46;20.60;99.90
20200;DHT22;36284;37.236;-121.934;2023-08-24T08:40:13;20.50;99.90
20200;DHT22;36284;37.236;-121.934;2023-08-24T08:42:40;20.50;99.90
20200;DHT22;36284;37.236;-121.934;2023-08-24T08:45:10;20.40;99.90
20200;DHT22;36284;37.236;-121.934;2023-08-24T08:47:38;20.50;99.90
20200;DHT22;36284;37.236;-121.934;2023-08-24T08:50:05;20.50;99.90
20200;DHT22;36284;37.236;-121.934;2023-08-24T08:52:32;20.40;99.90
20200;DHT22;36284;37.236;-121.934;2023-08-24T08:55:03;20.50;99.90
20200;DHT22;36284;37.236;-121.934;2023-08-24T08:57:33;20.50;99.90
20200;DHT22;36284;37.236;-121.934;2023-08-24T09:00:00;20.50;99.90
20200;DHT22;36284;37.236;-121.934;2023-08-24T09:02:28;20.50;99.90
20200;DHT22;36284;37.236;-121.934;2023-08-24T09:04:55;20.60;99.90
20200;DHT22;36284;37.236;-121.934;2023-08-24T09:07:23;20.30;99.90
20200;DHT22;36284;37.236;-121.934;2023-08-24T09:09:50;20.30;99.90
20200;DHT22;36284;37.236;-121.934;2023-08-24T09:12:18;20.30;99.90
20200;DHT22;36284;37.236;-121.934;2023-08-24T09:14:45;20.30;99.90
20200;DHT22;36284;37.236;-121.934;2023-08-24T09:17:20;20.30;99.90
20200;DHT22;36284;37.236;-121.934;2023-08-24T09:19:50;20.30;99.90
20200;DHT22;36284;37.236;-121.934;2023-08-24T09:22:18;20.30;99.90
20200;DHT22;36284;37.236;-121.934;2023-08-24T09:24:49;20.20;99.90
20200;DHT22;36284;37.236;-121.934;2023-08-24T09:27:20;20.10;99.90
20200;DHT22;36284;37.236;-121.934;2023-08-24T09:29:53;20.00;99.90
20200;DHT22;36284;37.236;-121.934;2023-08-24T09:32:24;20.00;99.90
20200;DHT22;36284;37.236;-121.934;2023-08-24T09:34:54;19.80;99.90
20200;DHT22;36284;37.236;-121.934;2023-08-24T09:37:21;19.80;99.90
20200;DHT22;36284;37.236;-121.934;2023-08-24T09:39:48;19.90;99.90
20200;DHT22;36284;37.236;-121.934;2023-08-24T09:42:24;19.80;99.90
20200;DHT22;36284;37.236;-121.934;2023-08-24T09:44:54;19.70;99.90
20200;DHT22;36284;37.236;-121.934;2023-08-24T09:47:21;19.70;99.90
20200;DHT22;36284;37.236;-121.934;2023-08-24T09:49:48;19.60;99.90
20200;DHT22;36284;37.236;-121.934;2023-08-24T09:52:17;19.60;99.90
20200;DHT22;36284;37.236;-121.934;2023-08-24T09:54:45;19.60;99.90
20200;DHT22;36284;37.236;-121.934;2023-08-24T09:57:12;19.60;99.90
20200;DHT22;36284;37.236;-121.934;2023-08-24T09:59:40;19.60;99.90
20200;DHT22;36284;37.236;-121.934;2023-08-24T10:02:16;19.60;99.90
20200;DHT22;36284;37.236;-121.934;2023-08-24T10:04:44;19.60;99.90
20200;DHT22;36284;37.236;-121.934;2023-08-24T10:07:16;19.60;99.90
20200;DHT22;36284;37.236;-121.934;2023-08-24T10:10:13;19.50;99.90
20200;DHT22;36284;37.236;-121.934;2023-08-24T10:12:46;19.50;99.90
20200;DHT22;36284;37.236;-121.934;2023-08-24T10:15:15;19.40;99.90
20200;DHT22;36284;37.236;-121.934;2023-08-24T10:17:44;19.40;99.90
20200;DHT22;36284;37.236;-121.934;2023-08-24T10:20:11;19.40;99.90
20200;DHT22;36284;37.236;-121.934;2023-08-24T10:22:38;19.40;99.90
20200;DHT22;36284;37.236;-121.934;2023-08-24T10:25:08;19.30;99.90
20200;DHT22;36284;37.236;-121.934;2023-08-24T10:27:36;19.30;99.90
20200;DHT22;36284;37.236;-121.934;2023-08-24T10:30:04;19.20;99.90
20200;DHT22;36284;37.236;-121.934;2023-08-24T10:32:32;19.20;99.90
20200;DHT22;36284;37.236;-121.934;2023-08-24T10:34:59;19.20;99.90
20200;DHT22;36284;37.236;-121.934;2023-08-24T10:37:27;19.20;99.90
20200;DHT22;36284;37.236;-121.934;2023-08-24T10:39:54;19.20;99.90
20200;DHT22;36284;37.236;-121.934;2023-08-24T10:42:21;19.30;99.90
20200;DHT22;36284;37.236;-121.934;2023-08-24T10:44:48;19.30;99.90
20200;DHT22;36284;37.236;-121.934;2023-08-24T10:47:22;19.20;99.90
20200;DHT22;36284;37.236;-121.934;2023-08-24T10:52:23;19.10;99.90
20200;DHT22;36284;37.236;-121.934;2023-08-24T10:54:52;19.10;99.90
20200;DHT22;36284;37.236;-121.934;2023-08-24T10:57:26;19.00;99.90
20200;DHT22;36284;37.236;-121.934;2023-08-24T11:02:53;18.80;99.90
20200;DHT22;36284;37.236;-121.934;2023-08-24T11:05:28;18.80;99.90
20200;DHT22;36284;37.236;-121.934;2023-08-24T11:08:01;18.80;99.90
20200;DHT22;36284;37.236;-121.934;2023-08-24T11:10:46;18.80;99.90
20200;DHT22;36284;37.236;-121.934;2023-08-24T11:13:17;18.80;99.90
20200;DHT22;36284;37.236;-121.934;2023-08-24T11:15:47;18.80;99.90
20200;DHT22;36284;37.236;-121.934;2023-08-24T11:18:20;18.70;99.90
20200;DHT22;36284;37.236;-121.934;2023-08-24T11:23:20;18.80;99.90
20200;DHT22;36284;37.236;-121.934;2023-08-24T11:25:51;18.70;99.90
20200;DHT22;36284;37.236;-121.934;2023-08-24T11:28:22;18.70;99.90
20200;DHT22;36284;37.236;-121.934;2023-08-24T11:30:49;18.60;99.90
20200;DHT22;36284;37.236;-121.934;2023-08-24T11:33:26;18.60;99.90
20200;DHT22;36284;37.236;-121.934;2023-08-24T11:35:55;18.70;99.90
20200;DHT22;36284;37.236;-121.934;2023-08-24T11:38:22;18.70;99.90
20200;DHT22;36284;37.236;-121.934;2023-08-24T11:40:49;18.60;99.90
20200;DHT22;36284;37.236;-121.934;2023-08-24T11:43:25;18.50;99.90
20200;DHT22;36284;37.236;-121.934;2023-08-24T11:45:55;18.50;99.90
20200;DHT22;36284;37.236;-121.934;2023-08-24T11:48:25;18.50;99.90
20200;DHT22;36284;37.236;-121.934;2023-08-24T11:50:54;18.40;99.90
20200;DHT22;36284;37.236;-121.934;2023-08-24T11:53:22;18.40;99.90
20200;DHT22;36284;37.236;-121.934;2023-08-24T11:55:53;18.40;99.90
20200;DHT22;36284;37.236;-121.934;2023-08-24T11:58:20;18.40;99.90
20200;DHT22;36284;37.236;-121.934;2023-08-24T12:00:48;18.30;99.90
20200;DHT22;36284;37.236;-121.934;2023-08-24T12:03:15;18.20;99.90
20200;DHT22;36284;37.236;-121.934;2023-08-24T12:05:42;18.30;99.90
20200;DHT22;36284;37.236;-121.934;2023-08-24T12:08:11;18.30;99.90
20200;DHT22;36284;37.236;-121.934;2023-08-24T12:10:42;18.40;99.90
20200;DHT22;36284;37.236;-121.934;2023-08-24T12:13:11;18.20;99.90
20200;DHT22;36284;37.236;-121.934;2023-08-24T12:15:40;18.20;99.90
20200;DHT22;36284;37.236;-121.934;2023-08-24T12:18:11;18.30;99.90
20200;DHT22;36284;37.236;-121.934;2023-08-24T12:20:39;18.20;99.90
20200;DHT22;36284;37.236;-121.934;2023-08-24T12:23:07;18.20;99.90
20200;DHT22;36284;37.236;-121.934;2023-08-24T12:25:38;18.30;99.90
20200;DHT22;36284;37.236;-121.934;2023-08-24T12:28:13;18.40;99.90
20200;DHT22;36284;37.236;-121.934;2023-08-24T12:30:58;18.30;99.90
20200;DHT22;36284;37.236;-121.934;2023-08-24T12:33:30;18.30;99.90
20200;DHT22;36284;37.236;-121.934;2023-08-24T12:35:57;18.30;99.90
20200;DHT22;36284;37.236;-121.934;2023-08-24T12:38:28;18.20;99.90
20200;DHT22;36284;37.236;-121.934;2023-08-24T12:40:55;18.20;99.90
20200;DHT22;36284;37.236;-121.934;2023-08-24T12:43:22;18.20;99.90
20200;DHT22;36284;37.236;-121.934;2023-08-24T12:45:49;18.20;99.90
20200;DHT22;36284;37.236;-121.934;2023-08-24T12:48:16;18.00;99.90
20200;DHT22;36284;37.236;-121.934;2023-08-24T12:50:43;18.10;99.90
20200;DHT22;36284;37.236;-121.934;2023-08-24T12:53:10;18.00;99.90
20200;DHT22;36284;37.236;-121.934;2023-08-24T12:55:39;17.90;99.90
20200;DHT22;36284;37.236;-121.934;2023-08-24T12:58:06;17.80;99.90
20200;DHT22;36284;37.236;-121.934;2023-08-24T13:00:33;17.80;99.90
20200;DHT22;36284;37.236;-121.934;2023-08-24T13:03:00;17.80;99.90
20200;DHT22;36284;37.236;-121.934;2023-08-24T13:05:27;17.80;99.90
20200;DHT22;36284;37.236;-121.934;2023-08-24T13:07:54;17.90;99.90
20200;DHT22;36284;37.236;-121.934;2023-08-24T13:10:21;17.90;99.90
20200;DHT22;36284;37.236;-121.934;2023-08-24T13:12:48;17.80;99.90
20200;DHT22;36284;37.236;-121.934;2023-08-24T13:15:15;17.90;99.90
20200;DHT22;36284;37.236;-121.934;2023-08-24T13:17:42;17.90;99.90
20200;DHT22;36284;37.236;-121.934;2023-08-24T13:20:09;17.80;99.90
20200;DHT22;36284;37.236;-121.934;2023-08-24T13:22:37;17.80;99.90
20200;DHT22;36284;37.236;-121.934;2023-08-24T13:25:04;17.80;99.90
20200;DHT22;36284;37.236;-121.934;2023-08-24T13:27:31;17.90;99.90
20200;DHT22;36284;37.236;-121.934;2023-08-24T13:30:01;17.80;99.90
20200;DHT22;36284;37.236;-121.934;2023-08-24T13:32:28;17.80;99.90
20200;DHT22;36284;37.236;-121.934;2023-08-24T13:34:55;17.70;99.90
20200;DHT22;36284;37.236;-121.934;2023-08-24T13:37:22;17.70;99.90
20200;DHT22;36284;37.236;-121.934;2023-08-24T13:39:54;17.70;99.90
20200;DHT22;36284;37.236;-121.934;2023-08-24T13:42:21;17.80;99.90
20200;DHT22;36284;37.236;-121.934;2023-08-24T13:44:48;17.80;99.90
20200;DHT22;36284;37.236;-121.934;2023-08-24T13:47:15;17.80;99.90
20200;DHT22;36284;37.236;-121.934;2023-08-24T13:49:42;17.80;99.90
20200;DHT22;36284;37.236;-121.934;2023-08-24T13:52:09;18.00;99.90
20200;DHT22;36284;37.236;-121.934;2023-08-24T13:54:36;18.00;99.90
20200;DHT22;36284;37.236;-121.934;2023-08-24T13:57:03;18.10;99.90
20200;DHT22;36284;37.236;-121.934;2023-08-24T13:59:30;18.30;99.90
20200;DHT22;36284;37.236;-121.934;2023-08-24T14:01:57;18.40;99.90
20200;DHT22;36284;37.236;-121.934;2023-08-24T14:04:24;18.50;99.90
20200;DHT22;36284;37.236;-121.934;2023-08-24T14:06:51;18.80;99.90
20200;DHT22;36284;37.236;-121.934;2023-08-24T14:09:18;18.90;99.90
20200;DHT22;36284;37.236;-121.934;2023-08-24T14:11:44;19.20;99.90
20200;DHT22;36284;37.236;-121.934;2023-08-24T14:14:11;19.10;99.90
20200;DHT22;36284;37.236;-121.934;2023-08-24T14:16:38;19.10;99.90
20200;DHT22;36284;37.236;-121.934;2023-08-24T14:19:05;19.20;99.90
20200;DHT22;36284;37.236;-121.934;2023-08-24T14:21:32;19.30;99.90
20200;DHT22;36284;37.236;-121.934;2023-08-24T14:23:59;19.80;99.90
20200;DHT22;36284;37.236;-121.934;2023-08-24T14:26:26;20.00;99.90
20200;DHT22;36284;37.236;-121.934;2023-08-24T14:28:55;20.10;99.90
20200;DHT22;36284;37.236;-121.934;2023-08-24T14:31:28;20.10;99.90
20200;DHT22;36284;37.236;-121.934;2023-08-24T14:33:58;20.10;99.90
20200;DHT22;36284;37.236;-121.934;2023-08-24T14:36:25;20.20;99.90
20200;DHT22;36284;37.236;-121.934;2023-08-24T14:38:52;20.80;99.90
20200;DHT22;36284;37.236;-121.934;2023-08-24T14:41:18;21.10;99.90
20200;DHT22;36284;37.236;-121.934;2023-08-24T14:43:46;21.30;99.90
20200;DHT22;36284;37.236;-121.934;2023-08-24T14:46:14;21.30;99.90
20200;DHT22;36284;37.236;-121.934;2023-08-24T14:48:41;21.20;99.90
20200;DHT22;36284;37.236;-121.934;2023-08-24T14:51:08;21.50;99.90
20200;DHT22;36284;37.236;-121.934;2023-08-24T14:53:35;21.90;99.90
20200;DHT22;36284;37.236;-121.934;2023-08-24T14:56:02;21.70;99.90
20200;DHT22;36284;37.236;-121.934;2023-08-24T14:58:29;22.10;99.90
20200;DHT22;36284;37.236;-121.934;2023-08-24T15:00:56;22.40;99.90
20200;DHT22;36284;37.236;-121.934;2023-08-24T15:03:24;22.60;99.90
20200;DHT22;36284;37.236;-121.934;2023-08-24T15:06:02;22.90;99.90